This is the latest recevied weather packets stored in our database for station/object K4ZZR. If no packets are shown the sender has not sent any weather packets the latest 10 day(s).
| Time | Temp. | Humidity | Pressure | Rain* | Wind** | Luminosity | Snow |
|---|---|---|---|---|---|---|---|
| 1777436160 | 23.89° C | 86% | 1017.6 hPa | 0 mm | - | 0 W/m² | - |
| 1777431911 | 23.89° C | 85% | 1017.6 hPa | 0 mm | - | 0 W/m² | - |
| 1777431609 | 23.89° C | 84% | 1017.4 hPa | 0 mm | - | 0 W/m² | - |
| 1777427656 | 24.44° C | 84% | 1017.7 hPa | 0 mm | - | 0 W/m² | - |
| 1777425834 | 25° C | 84% | 1017.8 hPa | 0 mm | - | 0 W/m² | - |
| 1777425530 | 25° C | 83% | 1017.6 hPa | 0 mm | - | 0 W/m² | - |
| 1777424313 | 25° C | 83% | 1017.7 hPa | 0 mm | - | 0 W/m² | - |
| 1777423706 | 25° C | 84% | 1017.4 hPa | 0 mm | - | 0 W/m² | - |
| 1777422493 | 25° C | 84% | 1017.2 hPa | 0 mm | - | 0 W/m² | - |
| 1777421279 | 25° C | 84% | 1017.1 hPa | 0 mm | - | 0 W/m² | - |
| 1777420064 | 25° C | 83% | 1017 hPa | 0 mm | - | 8 W/m² | - |
| 1777418246 | 25.56° C | 79% | 1017.4 hPa | 0 mm | - | 68 W/m² | - |
| 1777416421 | 25.56° C | 79% | 1017.7 hPa | 0 mm | - | 95 W/m² | - |
| 1777413987 | 26.11° C | 78% | 1017.7 hPa | 0 mm | - | 238 W/m² | - |
| 1777411863 | 26.67° C | 78% | 1017.6 hPa | 0 mm | - | 113 W/m² | - |
| 1777411256 | 25.56° C | 80% | 1017.6 hPa | 0 mm | - | 245 W/m² | - |
| 1777410950 | 26.11° C | 78% | 1017.7 hPa | 0 mm | - | 391 W/m² | - |
| 1777410649 | 26.67° C | 77% | 1017.7 hPa | 0 mm | - | 152 W/m² | - |
| 1777410345 | 26.67° C | 77% | 1017.8 hPa | 0 mm | - | 512 W/m² | - |
| 1777410034 | 26.67° C | 75% | 1017.6 hPa | 0 mm | - | 533 W/m² | - |
| 1777409734 | 26.11° C | 76% | 1017.7 hPa | 0 mm | - | 558 W/m² | - |
| 1777408519 | 26.67° C | 77% | 1018 hPa | 0 mm | - | 648 W/m² | - |
| 1777408218 | 26.67° C | 78% | 1017.8 hPa | 0 mm | - | 129 W/m² | - |
| 1777407914 | 26.67° C | 77% | 1018.1 hPa | 0 mm | - | 717 W/m² | - |
| 1777407611 | 26.67° C | 77% | 1017.8 hPa | 0 mm | - | 305 W/m² | - |
* Rain latest hour (hover to see other rain measurements)
** Current wind speed in m/s (hover to see current wind gust speed)